Terminal Aerodrome Forecast
Issued by NWS

Current Version | Previous Version | Text Only | Print | Product List | Glossary On
Versions: 1 2 3 4 5 6 7 8 9 10 11 12 13
000
FTUS46 KPDT 260500
TAFPSC
TAF
KPSC 260520Z 2606/2706 11003KT P6SM SKC
     FM261800 35005KT P6SM SKC
     FM270200 12004KT P6SM SKC=

USA.gov is the U.S. government's official web portal to all federal, state and local government web resources and services.